Airfield :
LOGIN :

Register | Disclaimer

   EN    FR    IT 

 










Legend :    VFR   Marginal VFR   IFR   Intensive IFR   Very Intensive IFR
Visi :
Ceiling :
>= 8 km
>= 3000ft
5 to 8 km
1000 to 3000 ft
1500m to 5 km
500 to 1000 ft
800 to 1500m
200 to 500 ft
< 800m
< 200 ft
Symbols :   Thunderstorms  Fog  Heavy snow  Heavy precipitations  Wind > 20 kt
SIGMETs :     Misc.  Thunderstorms  Icing  Turbulence  Mountain Waves  Volcanic Ashes






- Airport Elevation : 390 ft
- IATA code : NQY


EGHQ - Newquay

CURRENT METAR :
  • 161120Z 13006KT 060V210 9999 SCT048 11/00 Q1031

EXPIRED METARs :
  • 161050Z 10006KT 070V140 9999 SCT040 09/M02 Q1031
  • 160950Z 12007KT 070V160 9999 FEW028 10/02 Q1031
  • 160920Z 10006KT 040V170 9999 FEW028 09/02 Q1031
  • 160850Z 11007KT 070V150 9999 FEW043 08/03 Q1031

TAF TAF EGHQ
Valid from the 16 at 12:00 until the 16 at 21:00 UTC


161056Z 1612/1621 12006KT 9999 FEW030



MET'MAP, your aeronautical weather chart ! - Copyright ORBIFLY December 2007 - Disclaimer

ORBIFLY MET'MAP TEAM :

Programming & Development : Alexandra Zaïnal
Concept & original design : Baudouin d'Aumeries
Assistance for programming : Marc-Olivier Méhu
Technical & hardware support : Manuel Goepfert

Contact : metmap@orbifly.com




SOURCES & CREDITS :

   NOAA